createdAt,value
2024-03-28T00:02:00.948Z,75.30
2024-03-28T00:04:27.534Z,74.38
2024-03-28T00:06:54.548Z,75.21
2024-03-28T00:09:21.402Z,74.60
2024-03-28T00:11:47.570Z,74.94
2024-03-28T00:14:14.213Z,74.85
2024-03-28T00:16:40.167Z,75.46
2024-03-28T00:19:08.242Z,75.17
2024-03-28T00:21:35.375Z,74.53
2024-03-28T00:24:01.467Z,75.24
2024-03-28T00:26:28.370Z,74.67
2024-03-28T00:28:54.773Z,75.34
2024-03-28T00:31:20.922Z,74.64
2024-03-28T00:33:47.073Z,75.12
2024-03-28T00:36:13.536Z,74.44
2024-03-28T00:38:39.868Z,75.17
2024-03-28T00:41:05.987Z,74.93
2024-03-28T00:43:33.167Z,74.87
2024-03-28T00:46:00.623Z,75.24
2024-03-28T00:48:26.843Z,74.61
2024-03-28T00:50:54.186Z,75.53
2024-03-28T00:53:20.430Z,75.43
2024-03-28T00:55:47.245Z,74.82
2024-03-28T00:58:13.912Z,75.18
2024-03-28T01:00:41.201Z,75.36
2024-03-28T01:03:07.488Z,75.52
2024-03-28T01:05:34.296Z,75.51
2024-03-28T01:08:00.507Z,75.36
2024-03-28T01:10:26.664Z,75.17
2024-03-28T01:12:53.155Z,75.34
2024-03-28T01:15:19.304Z,75.37
2024-03-28T01:17:46.347Z,75.40
2024-03-28T01:20:12.842Z,74.77
2024-03-28T01:22:39.052Z,74.96
2024-03-28T01:25:06.496Z,74.70
2024-03-28T01:27:32.977Z,75.19
2024-03-28T01:29:59.150Z,75.18
2024-03-28T01:32:26.020Z,75.10
2024-03-28T01:34:53.259Z,75.48
2024-03-28T01:37:19.749Z,75.14
2024-03-28T01:39:47.723Z,75.41
2024-03-28T01:42:14.379Z,74.59
2024-03-28T01:44:40.540Z,75.26
2024-03-28T01:47:25.472Z,74.46
2024-03-28T01:49:54.278Z,74.40
2024-03-28T01:52:20.581Z,75.06
2024-03-28T01:54:47.079Z,74.32
2024-03-28T01:57:15.105Z,74.79
2024-03-28T01:59:42.551Z,74.80
2024-03-28T02:02:08.685Z,74.59
2024-03-28T02:04:35.323Z,74.71
2024-03-28T02:07:01.883Z,74.84
2024-03-28T02:09:28.531Z,74.32
2024-03-28T02:11:55.083Z,74.54
2024-03-28T02:14:21.321Z,74.57
2024-03-28T02:16:47.477Z,74.87
2024-03-28T02:19:14.008Z,74.71
2024-03-28T02:21:40.164Z,74.58
2024-03-28T02:24:07.424Z,74.77
2024-03-28T02:26:33.926Z,74.10
2024-03-28T02:29:00.067Z,74.70
2024-03-28T02:31:26.281Z,74.08
2024-03-28T02:33:52.756Z,74.11
2024-03-28T02:36:18.903Z,74.25
2024-03-28T02:38:45.022Z,74.47
2024-03-28T02:41:12.063Z,73.89
2024-03-28T02:43:38.155Z,74.43
2024-03-28T02:46:04.217Z,74.10
2024-03-28T02:48:30.781Z,74.29
2024-03-28T02:50:56.843Z,74.52
2024-03-28T02:53:22.996Z,73.91
2024-03-28T02:55:50.928Z,73.99
2024-03-28T02:58:17.681Z,74.04
2024-03-28T03:00:43.769Z,74.32
2024-03-28T03:03:10.157Z,73.64
2024-03-28T03:05:36.224Z,74.22
2024-03-28T03:08:02.496Z,73.92
2024-03-28T03:10:28.919Z,74.16
2024-03-28T03:12:55.015Z,73.63
2024-03-28T03:15:21.846Z,74.15
2024-03-28T03:17:48.220Z,73.97
2024-03-28T03:20:14.783Z,73.76
2024-03-28T03:22:49.123Z,74.22
2024-03-28T03:25:25.065Z,73.75
2024-03-28T03:28:09.513Z,74.20
2024-03-28T03:30:54.849Z,73.53
2024-03-28T03:33:39.363Z,73.84
2024-03-28T03:36:06.171Z,74.13
2024-03-28T03:38:32.577Z,74.41
2024-03-28T03:41:00.242Z,73.77
2024-03-28T03:43:26.597Z,74.58
2024-03-28T03:45:53.404Z,74.31
2024-03-28T03:48:19.268Z,74.79
2024-03-28T03:50:45.644Z,74.37
2024-03-28T03:53:11.741Z,73.85
2024-03-28T03:55:37.837Z,74.31
2024-03-28T03:58:04.535Z,73.89
2024-03-28T04:00:30.400Z,74.56
2024-03-28T04:02:57.257Z,74.30
2024-03-28T04:05:23.578Z,74.22
2024-03-28T04:07:50.564Z,74.35
2024-03-28T04:10:16.745Z,74.31
2024-03-28T04:12:43.130Z,74.32
2024-03-28T04:15:09.423Z,74.17
2024-03-28T04:17:35.584Z,74.39
2024-03-28T04:20:03.649Z,74.00
2024-03-28T04:22:29.750Z,74.39
2024-03-28T04:24:56.398Z,74.37
2024-03-28T04:27:22.881Z,73.95
2024-03-28T04:29:56.053Z,74.23
2024-03-28T04:32:27.116Z,74.38
2024-03-28T04:34:53.411Z,74.45
2024-03-28T04:37:20.202Z,73.82
2024-03-28T04:39:46.337Z,74.14
2024-03-28T04:42:12.386Z,74.29
2024-03-28T04:44:38.489Z,74.03
2024-03-28T04:47:04.959Z,74.15
2024-03-28T04:49:33.789Z,74.15
2024-03-28T04:52:00.961Z,74.32
2024-03-28T04:54:28.023Z,74.20
2024-03-28T04:56:54.083Z,74.61
2024-03-28T04:59:20.138Z,74.14
2024-03-28T05:01:46.492Z,74.16
2024-03-28T05:04:12.591Z,74.44
2024-03-28T05:06:38.691Z,74.30
2024-03-28T05:09:08.995Z,74.80
2024-03-28T05:11:35.768Z,74.34
2024-03-28T05:14:01.695Z,74.66
2024-03-28T05:16:28.815Z,74.43
2024-03-28T05:18:54.996Z,74.54
2024-03-28T05:21:21.078Z,74.54
2024-03-28T05:23:48.189Z,74.64
2024-03-28T05:26:14.312Z,74.45
2024-03-28T05:28:41.076Z,74.71
2024-03-28T05:31:14.208Z,74.80
2024-03-28T05:33:40.381Z,75.29
2024-03-28T05:36:06.845Z,74.52
2024-03-28T05:38:33.258Z,74.57
2024-03-28T05:40:59.396Z,74.44
2024-03-28T05:43:25.546Z,75.00
2024-03-28T05:45:52.541Z,74.45
2024-03-28T05:48:18.771Z,74.64
2024-03-28T05:50:44.849Z,74.50
2024-03-28T05:53:11.340Z,74.06
2024-03-28T05:55:37.408Z,73.98
2024-03-28T05:58:04.079Z,74.23
2024-03-28T06:00:31.335Z,74.32
2024-03-28T06:02:58.131Z,73.79
2024-03-28T06:05:24.127Z,74.51
2024-03-28T06:07:50.438Z,74.02
2024-03-28T06:10:16.893Z,73.71
2024-03-28T06:12:42.986Z,74.29
2024-03-28T06:15:10.235Z,73.87
2024-03-28T06:17:36.402Z,74.38
2024-03-28T06:20:03.750Z,73.96
2024-03-28T06:22:30.167Z,73.73
2024-03-28T06:24:56.344Z,74.13
2024-03-28T06:27:22.780Z,74.00
2024-03-28T06:29:51.965Z,73.87
2024-03-28T06:32:25.066Z,73.71
2024-03-28T06:34:51.933Z,72.96
2024-03-28T06:37:19.148Z,72.87
2024-03-28T06:39:45.740Z,72.05
2024-03-28T06:42:12.118Z,71.96
2024-03-28T06:44:38.290Z,71.30
2024-03-28T06:47:05.385Z,71.29
2024-03-28T06:49:31.860Z,71.51
2024-03-28T06:51:57.973Z,71.13
2024-03-28T06:54:24.730Z,70.39
2024-03-28T06:56:51.070Z,70.11
2024-03-28T06:59:17.229Z,70.36
2024-03-28T07:01:43.402Z,70.14
2024-03-28T07:04:09.778Z,69.99
2024-03-28T07:06:36.157Z,70.14
2024-03-28T07:09:02.299Z,70.42
2024-03-28T07:11:29.782Z,70.17
2024-03-28T07:13:55.943Z,69.71
2024-03-28T07:16:22.178Z,69.35
2024-03-28T07:18:48.592Z,68.45
2024-03-28T07:21:14.698Z,69.64
2024-03-28T07:23:41.373Z,68.85
2024-03-28T07:26:07.795Z,69.12
2024-03-28T07:28:34.574Z,68.12
2024-03-28T07:31:00.735Z,68.08
2024-03-28T07:33:27.148Z,68.58
2024-03-28T07:35:53.283Z,67.60
2024-03-28T07:38:19.435Z,67.99
2024-03-28T07:40:46.949Z,67.22
2024-03-28T07:43:13.131Z,67.99
2024-03-28T07:45:39.990Z,67.48
2024-03-28T07:48:07.014Z,67.29
2024-03-28T07:50:33.106Z,66.89
2024-03-28T07:52:59.176Z,66.90
2024-03-28T07:55:25.637Z,67.68
2024-03-28T07:57:51.672Z,66.22
2024-03-28T08:00:18.505Z,67.57
2024-03-28T08:02:47.418Z,66.56
2024-03-28T08:05:13.621Z,66.87
2024-03-28T08:07:39.810Z,66.88
2024-03-28T08:10:09.593Z,65.63
2024-03-28T08:12:35.794Z,66.84
2024-03-28T08:15:03.011Z,67.07
2024-03-28T08:17:30.771Z,67.89
2024-03-28T08:19:57.894Z,67.17
2024-03-28T08:22:23.983Z,68.00
2024-03-28T08:24:51.051Z,68.29
2024-03-28T08:27:17.427Z,69.26
2024-03-28T08:29:43.556Z,69.79
2024-03-28T08:32:09.958Z,70.27
2024-03-28T08:34:36.168Z,69.74
2024-03-28T08:37:03.954Z,70.97
2024-03-28T08:39:30.561Z,71.18
2024-03-28T08:41:57.034Z,74.40
2024-03-28T08:44:23.208Z,73.75
2024-03-28T08:46:49.642Z,73.23
2024-03-28T08:49:17.106Z,73.76
2024-03-28T08:51:43.271Z,74.37
2024-03-28T08:54:13.344Z,74.75
2024-03-28T08:56:40.399Z,76.40
2024-03-28T08:59:06.703Z,78.45
2024-03-28T09:01:33.129Z,77.43
2024-03-28T09:03:59.213Z,78.42
2024-03-28T09:06:25.391Z,78.14
2024-03-28T09:08:51.783Z,81.61
2024-03-28T09:11:18.540Z,77.85
2024-03-28T09:13:44.696Z,78.79
2024-03-28T09:16:11.110Z,79.03
2024-03-28T09:18:37.217Z,80.48
2024-03-28T09:21:08.681Z,80.88
2024-03-28T09:23:35.055Z,81.71
2024-03-28T09:26:01.288Z,80.96
2024-03-28T09:28:28.278Z,82.80
2024-03-28T09:30:54.767Z,81.46
2024-03-28T09:33:20.936Z,82.12
2024-03-28T09:35:47.131Z,83.01
2024-03-28T09:38:13.792Z,85.03
2024-03-28T09:40:49.042Z,82.31
2024-03-28T09:43:15.445Z,84.87
2024-03-28T09:45:42.822Z,84.24
2024-03-28T09:48:09.535Z,83.82
2024-03-28T09:50:36.643Z,85.31
2024-03-28T09:53:04.879Z,84.09
2024-03-28T09:55:31.273Z,83.79
2024-03-28T09:58:02.338Z,85.31
2024-03-28T10:00:29.279Z,84.28
2024-03-28T10:03:00.397Z,84.95
2024-03-28T10:05:27.043Z,84.92
2024-03-28T10:07:53.508Z,87.32
2024-03-28T10:10:20.719Z,86.25
2024-03-28T10:12:53.107Z,86.42
2024-03-28T10:15:20.145Z,85.88
2024-03-28T10:17:47.090Z,85.35
2024-03-28T10:20:15.372Z,87.51
2024-03-28T10:22:44.605Z,87.21
2024-03-28T10:25:18.298Z,85.64
2024-03-28T10:27:44.567Z,86.49
2024-03-28T10:30:12.598Z,85.58
2024-03-28T10:32:39.650Z,85.15
2024-03-28T10:35:10.215Z,84.53
2024-03-28T10:37:49.498Z,85.88
2024-03-28T10:40:23.325Z,85.18
2024-03-28T10:42:50.155Z,85.19
2024-03-28T10:45:16.452Z,85.17
2024-03-28T10:47:43.753Z,86.01
2024-03-28T10:50:14.386Z,85.62
2024-03-28T10:52:45.203Z,85.24
2024-03-28T10:55:12.563Z,85.20
2024-03-28T10:57:42.083Z,85.47
2024-03-28T11:00:10.312Z,84.50
2024-03-28T11:02:38.203Z,85.38
2024-03-28T11:05:06.914Z,85.20
2024-03-28T11:07:34.874Z,84.94
2024-03-28T11:10:01.837Z,84.49
2024-03-28T11:12:28.846Z,84.43
2024-03-28T11:14:55.873Z,85.08
2024-03-28T11:17:22.270Z,84.35
2024-03-28T11:20:00.786Z,84.54
2024-03-28T11:22:27.025Z,84.13
2024-03-28T11:24:53.121Z,84.64
2024-03-28T11:27:24.396Z,84.36
2024-03-28T11:29:53.611Z,84.25
2024-03-28T11:32:23.512Z,84.36
2024-03-28T11:34:50.079Z,84.71
2024-03-28T11:37:22.020Z,83.91
2024-03-28T11:39:48.736Z,83.82
2024-03-28T11:42:25.695Z,83.30
2024-03-28T11:45:04.198Z,83.69
2024-03-28T11:47:32.531Z,82.48
2024-03-28T11:50:05.180Z,82.18
2024-03-28T11:52:31.515Z,83.00
2024-03-28T11:54:57.637Z,80.98
2024-03-28T11:57:24.000Z,78.05
2024-03-28T11:59:50.812Z,79.40
2024-03-28T12:02:17.695Z,79.47
2024-03-28T12:04:44.110Z,79.58
2024-03-28T12:07:10.949Z,80.09
2024-03-28T12:09:38.998Z,78.67
2024-03-28T12:12:06.878Z,79.00
2024-03-28T12:14:33.427Z,79.46
2024-03-28T12:16:59.372Z,77.19
2024-03-28T12:19:26.937Z,78.25
2024-03-28T12:21:53.183Z,79.99
2024-03-28T12:24:19.484Z,80.24
2024-03-28T12:26:46.179Z,78.84
2024-03-28T12:29:13.237Z,80.56
2024-03-28T12:31:39.375Z,80.17
2024-03-28T12:34:10.416Z,80.59
2024-03-28T12:36:37.523Z,80.00
2024-03-28T12:39:05.053Z,78.30
2024-03-28T12:41:31.533Z,78.51
2024-03-28T12:43:58.823Z,76.64
2024-03-28T12:46:25.207Z,75.38
2024-03-28T12:48:52.539Z,76.62
2024-03-28T12:51:18.906Z,76.23
2024-03-28T12:53:45.774Z,72.12
2024-03-28T12:56:12.150Z,69.60
2024-03-28T12:58:38.285Z,72.25
2024-03-28T13:01:04.548Z,71.21
2024-03-28T13:03:32.910Z,70.99
2024-03-28T13:05:58.973Z,71.33
2024-03-28T13:08:26.071Z,69.45
2024-03-28T13:10:53.949Z,67.59
2024-03-28T13:13:20.144Z,61.22
2024-03-28T13:15:46.296Z,65.16
2024-03-28T13:18:12.701Z,66.59
2024-03-28T13:20:38.583Z,55.56
2024-03-28T13:23:04.831Z,59.73
2024-03-28T13:25:32.628Z,63.08
2024-03-28T13:28:01.236Z,61.83
2024-03-28T13:30:27.390Z,63.76
2024-03-28T13:32:53.851Z,63.08
2024-03-28T13:35:19.747Z,56.97
2024-03-28T13:37:45.871Z,67.14
2024-03-28T13:40:12.664Z,65.94
2024-03-28T13:42:38.841Z,60.68
2024-03-28T13:45:08.740Z,64.74
2024-03-28T13:47:35.093Z,64.62
2024-03-28T13:50:01.216Z,65.05
2024-03-28T13:52:27.411Z,64.16
2024-03-28T13:54:53.842Z,64.82
2024-03-28T13:57:19.763Z,58.25
2024-03-28T13:59:45.936Z,62.18
2024-03-28T14:02:13.351Z,63.49
2024-03-28T14:04:39.517Z,62.05
2024-03-28T14:07:05.806Z,58.60
2024-03-28T14:09:32.361Z,63.58
2024-03-28T14:11:58.514Z,63.70
2024-03-28T14:14:24.616Z,59.44
2024-03-28T14:16:51.073Z,63.42
2024-03-28T14:19:17.947Z,60.99
2024-03-28T14:21:44.021Z,62.30
2024-03-28T14:24:10.400Z,59.10
2024-03-28T14:26:36.335Z,57.37
2024-03-28T14:29:02.475Z,60.97
2024-03-28T14:31:28.863Z,60.50
2024-03-28T14:33:57.085Z,60.83
2024-03-28T14:36:24.237Z,60.05
2024-03-28T14:38:50.605Z,60.09
2024-03-28T14:41:16.681Z,60.06
2024-03-28T14:43:44.444Z,60.67
2024-03-28T14:46:12.035Z,59.39
2024-03-28T14:48:38.385Z,59.69
2024-03-28T14:51:06.102Z,58.20
2024-03-28T14:53:33.340Z,55.13
2024-03-28T14:56:00.629Z,58.96
2024-03-28T14:58:34.347Z,60.54
2024-03-28T15:01:11.709Z,58.06
2024-03-28T15:03:37.805Z,58.90
2024-03-28T15:06:04.319Z,56.88
2024-03-28T15:08:30.781Z,55.79
2024-03-28T15:11:00.503Z,51.31
2024-03-28T15:13:26.618Z,55.13
2024-03-28T15:15:52.995Z,57.09
2024-03-28T15:18:19.122Z,57.67
2024-03-28T15:20:45.275Z,56.43
2024-03-28T15:23:11.804Z,54.80
2024-03-28T15:25:37.927Z,57.04
2024-03-28T15:28:05.862Z,55.38
2024-03-28T15:30:32.809Z,58.14
2024-03-28T15:32:58.950Z,56.53
2024-03-28T15:35:25.086Z,55.15
2024-03-28T15:37:51.659Z,56.00
2024-03-28T15:40:20.591Z,56.99
2024-03-28T15:42:46.999Z,55.70
2024-03-28T15:45:14.168Z,56.77
2024-03-28T15:47:44.100Z,56.32
2024-03-28T15:50:11.456Z,57.62
2024-03-28T15:52:37.837Z,57.68
2024-03-28T15:55:04.588Z,58.10
2024-03-28T15:57:30.717Z,56.28
2024-03-28T15:59:58.192Z,57.72
2024-03-28T16:02:25.020Z,56.77
2024-03-28T16:04:51.133Z,58.12
2024-03-28T16:07:17.738Z,58.19
2024-03-28T16:09:44.624Z,57.27
2024-03-28T16:12:10.956Z,58.56
2024-03-28T16:14:37.424Z,57.94
2024-03-28T16:17:05.250Z,58.17
2024-03-28T16:19:32.747Z,57.77
2024-03-28T16:21:59.141Z,56.59
2024-03-28T16:24:26.501Z,58.77
2024-03-28T16:26:52.691Z,58.29
2024-03-28T16:29:19.114Z,58.76
2024-03-28T16:31:45.299Z,59.53
2024-03-28T16:34:11.439Z,59.55
2024-03-28T16:36:38.627Z,59.28
2024-03-28T16:39:06.566Z,59.58
2024-03-28T16:41:32.682Z,59.98
2024-03-28T16:43:59.203Z,59.21
2024-03-28T16:46:25.261Z,58.51
2024-03-28T16:48:51.359Z,58.89
2024-03-28T16:51:17.882Z,59.29
2024-03-28T16:53:44.506Z,57.06
2024-03-28T16:56:10.877Z,59.03
2024-03-28T16:58:37.382Z,59.12
2024-03-28T17:01:03.547Z,58.21
2024-03-28T17:03:29.886Z,60.03
2024-03-28T17:05:56.712Z,59.84
2024-03-28T17:08:22.881Z,59.90
2024-03-28T17:10:51.206Z,59.66
2024-03-28T17:13:19.030Z,59.44
2024-03-28T17:15:54.202Z,58.57
2024-03-28T17:18:20.943Z,58.50
2024-03-28T17:20:47.210Z,59.82
2024-03-28T17:23:13.325Z,60.19
2024-03-28T17:25:40.081Z,60.06
2024-03-28T17:28:07.168Z,59.94
2024-03-28T17:30:35.099Z,59.48
2024-03-28T17:33:01.594Z,60.52
2024-03-28T17:35:27.875Z,60.70
2024-03-28T17:37:54.018Z,59.89
2024-03-28T17:40:20.431Z,61.06
2024-03-28T17:42:46.567Z,59.48
2024-03-28T17:45:13.483Z,60.73
2024-03-28T17:47:40.365Z,60.56
2024-03-28T17:50:07.696Z,61.00
2024-03-28T17:52:34.212Z,61.27
2024-03-28T17:55:00.400Z,59.18
2024-03-28T17:57:26.606Z,61.22
2024-03-28T17:59:52.654Z,59.91
2024-03-28T18:02:20.209Z,61.62
2024-03-28T18:04:47.374Z,61.06
2024-03-28T18:07:15.193Z,61.65
2024-03-28T18:09:42.148Z,61.76
2024-03-28T18:12:08.604Z,61.81
2024-03-28T18:14:35.071Z,61.90
2024-03-28T18:17:01.467Z,62.53
2024-03-28T18:19:28.326Z,61.98
2024-03-28T18:21:55.105Z,62.16
2024-03-28T18:24:22.603Z,62.32
2024-03-28T18:26:48.807Z,62.56
2024-03-28T18:29:15.355Z,62.61
2024-03-28T18:31:41.951Z,63.21
2024-03-28T18:34:07.866Z,62.85
2024-03-28T18:36:34.987Z,63.41
2024-03-28T18:39:01.553Z,62.89
2024-03-28T18:41:27.746Z,63.72
2024-03-28T18:43:54.029Z,63.40
2024-03-28T18:46:20.579Z,63.84
2024-03-28T18:48:50.775Z,63.43
2024-03-28T18:51:16.934Z,63.67
2024-03-28T18:53:44.005Z,63.85
2024-03-28T18:56:10.259Z,64.10
2024-03-28T18:58:36.634Z,64.73
2024-03-28T19:01:03.580Z,64.54
2024-03-28T19:03:29.760Z,64.09
2024-03-28T19:05:55.980Z,64.49
2024-03-28T19:08:22.603Z,64.54
2024-03-28T19:10:50.327Z,64.05
2024-03-28T19:13:16.673Z,64.14
2024-03-28T19:15:45.632Z,63.98
2024-03-28T19:18:12.470Z,63.81
2024-03-28T19:20:39.445Z,63.16
2024-03-28T19:23:06.177Z,63.83
2024-03-28T19:25:33.597Z,64.28
2024-03-28T19:28:01.491Z,63.45
2024-03-28T19:30:28.483Z,63.51
2024-03-28T19:32:54.894Z,63.92
2024-03-28T19:35:21.426Z,63.80
2024-03-28T19:37:50.884Z,63.85
2024-03-28T19:40:18.442Z,64.44
2024-03-28T19:42:44.638Z,64.13
2024-03-28T19:45:11.904Z,64.47
2024-03-28T19:47:38.032Z,63.93
2024-03-28T19:50:05.223Z,64.18
2024-03-28T19:52:31.922Z,63.98
2024-03-28T19:55:00.619Z,64.39
2024-03-28T19:57:28.977Z,64.21
2024-03-28T19:59:55.939Z,63.59
2024-03-28T20:02:23.739Z,63.69
2024-03-28T20:04:58.065Z,62.85
2024-03-28T20:07:24.465Z,62.62
2024-03-28T20:09:50.948Z,63.00
2024-03-28T20:12:18.179Z,63.26
2024-03-28T20:14:44.271Z,62.97
2024-03-28T20:17:10.955Z,63.53
2024-03-28T20:19:37.822Z,61.85
2024-03-28T20:22:04.420Z,63.10
2024-03-28T20:24:30.320Z,61.73
2024-03-28T20:26:56.733Z,63.31
2024-03-28T20:29:22.879Z,63.44
2024-03-28T20:31:49.027Z,62.54
2024-03-28T20:34:15.436Z,63.52
2024-03-28T20:36:44.605Z,63.34
2024-03-28T20:39:10.867Z,63.32
2024-03-28T20:41:45.280Z,62.24
2024-03-28T20:44:18.067Z,63.14
2024-03-28T20:46:44.501Z,62.59
2024-03-28T20:49:10.855Z,61.89
2024-03-28T20:51:37.012Z,62.93
2024-03-28T20:54:04.442Z,62.21
2024-03-28T20:56:31.031Z,62.45
2024-03-28T20:58:57.224Z,62.28
2024-03-28T21:01:23.874Z,62.44
2024-03-28T21:03:49.988Z,60.79
2024-03-28T21:06:30.973Z,62.55
2024-03-28T21:09:15.435Z,61.49
2024-03-28T21:11:43.538Z,62.63
2024-03-28T21:14:11.014Z,62.12
2024-03-28T21:16:37.226Z,62.39
2024-03-28T21:19:03.670Z,62.71
2024-03-28T21:21:31.301Z,62.47
2024-03-28T21:23:57.506Z,62.34
2024-03-28T21:26:23.905Z,62.37
2024-03-28T21:28:50.761Z,62.14
2024-03-28T21:31:16.963Z,61.74
2024-03-28T21:33:43.693Z,61.89
2024-03-28T21:36:12.937Z,61.48
2024-03-28T21:38:39.202Z,61.18
2024-03-28T21:41:08.606Z,62.15
2024-03-28T21:43:36.409Z,62.50
2024-03-28T21:46:04.120Z,62.70
2024-03-28T21:48:30.659Z,61.70
2024-03-28T21:50:58.686Z,61.11
2024-03-28T21:53:24.764Z,62.09
2024-03-28T21:55:58.237Z,62.13
2024-03-28T21:58:24.479Z,61.90
2024-03-28T22:00:50.547Z,62.19
2024-03-28T22:03:17.583Z,62.46
2024-03-28T22:05:52.807Z,62.80
2024-03-28T22:08:19.165Z,62.38
2024-03-28T22:10:45.434Z,63.24
2024-03-28T22:13:11.797Z,62.56
2024-03-28T22:15:38.196Z,62.99
2024-03-28T22:18:04.631Z,63.26
2024-03-28T22:20:31.398Z,62.77
2024-03-28T22:22:57.778Z,63.21
2024-03-28T22:25:24.322Z,62.99
2024-03-28T22:27:50.478Z,63.65
2024-03-28T22:30:17.088Z,63.67
2024-03-28T22:32:43.454Z,62.92
2024-03-28T22:35:09.603Z,63.06
2024-03-28T22:37:36.647Z,63.80
2024-03-28T22:40:03.712Z,63.96
2024-03-28T22:42:29.999Z,63.86
2024-03-28T22:44:56.659Z,63.78
2024-03-28T22:47:22.702Z,63.05
2024-03-28T22:49:51.149Z,64.04
2024-03-28T22:52:17.834Z,63.29
2024-03-28T22:54:44.364Z,63.20
2024-03-28T22:57:10.478Z,63.55
2024-03-28T22:59:36.962Z,64.26
2024-03-28T23:02:03.924Z,63.41
2024-03-28T23:04:30.199Z,64.27
2024-03-28T23:06:56.581Z,63.68
2024-03-28T23:09:22.897Z,64.21
2024-03-28T23:11:49.720Z,63.54
2024-03-28T23:14:16.276Z,64.20
2024-03-28T23:16:42.739Z,64.51
2024-03-28T23:19:09.015Z,64.07
2024-03-28T23:21:36.792Z,64.43
2024-03-28T23:24:03.021Z,64.40
2024-03-28T23:26:29.399Z,64.62
2024-03-28T23:28:56.724Z,64.66
2024-03-28T23:31:22.799Z,64.05
2024-03-28T23:33:49.010Z,64.38
2024-03-28T23:36:15.360Z,64.23
2024-03-28T23:38:41.497Z,63.83
2024-03-28T23:41:07.621Z,64.10
2024-03-28T23:43:34.730Z,64.27
2024-03-28T23:46:01.511Z,64.50
2024-03-28T23:48:27.561Z,64.46
2024-03-28T23:50:53.995Z,64.42
2024-03-28T23:53:20.247Z,64.01
2024-03-28T23:55:46.458Z,64.79
2024-03-28T23:58:12.813Z,64.68
